Time;durP1;ratioP1;P1;durP2;ratioP2;P2;SDS_P1;SDS_P2;PMS_P1;PMS_P2;Temp;Humidity;BMP_temperature;BMP_pressure;BME280_temperature;BME280_humidity;BME280_pressure;Samples;Min_cycle;Max_cycle;Signal;HPM_P1;HPM_P2
2022/08/27 00:01:07;;;;;;;14.63;9.40;;;16.90;99.90;;;;;;5071866;28;20201;-59
2022/08/27 00:03:34;;;;;;;11.43;10.13;;;16.90;99.90;;;;;;5071389;28;20225;-59
2022/08/27 00:06:00;;;;;;;13.57;9.93;;;16.90;99.90;;;;;;5071750;28;20235;-59
2022/08/27 00:08:27;;;;;;;19.00;10.03;;;17.00;99.90;;;;;;5071808;28;20626;-59
2022/08/27 00:10:55;;;;;;;15.93;10.37;;;16.90;99.90;;;;;;5071804;28;20221;-59
2022/08/27 00:13:22;;;;;;;19.50;10.33;;;16.90;99.90;;;;;;5071683;28;20229;-59
2022/08/27 00:15:48;;;;;;;15.00;10.20;;;16.90;99.90;;;;;;5071554;28;20204;-59
2022/08/27 00:18:15;;;;;;;18.53;9.80;;;17.00;99.90;;;;;;5071429;28;20208;-59
2022/08/27 00:20:43;;;;;;;14.37;9.87;;;17.00;99.90;;;;;;5071501;28;20217;-59
2022/08/27 00:23:09;;;;;;;15.27;9.07;;;16.90;99.90;;;;;;5071635;28;20646;-59
2022/08/27 00:25:36;;;;;;;11.63;8.47;;;16.90;99.90;;;;;;5071464;28;20266;-59
2022/08/27 00:28:05;;;;;;;17.57;9.23;;;16.90;99.90;;;;;;5071381;28;20250;-59
2022/08/27 00:30:31;;;;;;;14.23;8.50;;;16.90;99.90;;;;;;5071319;28;20589;-59
2022/08/27 00:32:58;;;;;;;15.50;8.50;;;16.90;99.90;;;;;;5071376;28;20401;-59
2022/08/27 00:35:25;;;;;;;14.20;8.93;;;16.90;99.90;;;;;;5073081;28;20205;-59
2022/08/27 00:37:52;;;;;;;12.80;8.73;;;16.80;99.90;;;;;;5074977;28;20701;-59
2022/08/27 00:40:22;;;;;;;12.87;8.90;;;16.80;99.90;;;;;;5075196;28;20255;-59
2022/08/27 00:42:49;;;;;;;14.67;8.47;;;16.80;99.90;;;;;;5075289;28;20229;-59
2022/08/27 00:45:19;;;;;;;12.57;9.20;;;16.80;99.90;;;;;;5075108;28;20263;-59
2022/08/27 00:47:49;;;;;;;13.47;8.60;;;16.90;99.90;;;;;;5075019;28;20709;-59
2022/08/27 00:50:21;;;;;;;14.37;8.70;;;16.80;99.90;;;;;;5075300;28;20209;-60
2022/08/27 00:52:53;;;;;;;13.07;8.97;;;16.70;99.90;;;;;;5075092;28;20319;-59
2022/08/27 00:55:24;;;;;;;14.97;9.33;;;16.70;99.90;;;;;;5074865;28;20205;-59
2022/08/27 00:57:55;;;;;;;15.83;8.33;;;16.80;99.90;;;;;;5074768;28;20618;-59
2022/08/27 01:00:23;;;;;;;16.63;9.37;;;16.70;99.90;;;;;;5074769;28;20205;-59
2022/08/27 01:02:49;;;;;;;19.53;9.57;;;16.70;99.90;;;;;;5075059;28;20228;-58
2022/08/27 01:05:20;;;;;;;12.03;9.17;;;16.70;99.90;;;;;;5074945;28;20361;-58
2022/08/27 01:07:50;;;;;;;14.03;8.83;;;16.60;99.90;;;;;;5074663;28;20251;-54
2022/08/27 01:10:21;;;;;;;14.13;10.07;;;16.60;99.90;;;;;;5074576;28;20263;-57
2022/08/27 01:12:49;;;;;;;10.73;9.37;;;16.70;99.90;;;;;;5074668;28;20286;-58
2022/08/27 01:15:17;;;;;;;10.43;9.33;;;16.70;99.90;;;;;;5074617;28;20292;-59
2022/08/27 01:17:46;;;;;;;13.13;9.10;;;16.70;99.90;;;;;;5074468;28;20252;-58
2022/08/27 01:20:17;;;;;;;12.67;9.30;;;16.60;99.90;;;;;;5074348;28;20223;-56
2022/08/27 01:22:50;;;;;;;13.17;8.87;;;16.50;99.90;;;;;;5074321;28;20726;-56
2022/08/27 01:25:20;;;;;;;13.23;9.77;;;16.60;99.90;;;;;;5074813;28;20209;-57
2022/08/27 01:27:47;;;;;;;13.20;8.83;;;16.50;99.90;;;;;;5074336;28;20250;-56
2022/08/27 01:30:18;;;;;;;13.03;9.47;;;16.50;99.90;;;;;;5074500;28;20205;-59
2022/08/27 01:32:46;;;;;;;17.07;10.20;;;16.50;99.90;;;;;;5074335;28;20232;-58
2022/08/27 01:35:15;;;;;;;14.70;9.47;;;16.50;99.90;;;;;;5074379;28;20204;-58
2022/08/27 01:37:43;;;;;;;12.23;10.10;;;16.40;99.90;;;;;;5073940;28;20209;-58
2022/08/27 01:40:11;;;;;;;15.70;10.57;;;16.40;99.90;;;;;;5074447;28;20603;-59
2022/08/27 01:42:43;;;;;;;13.90;9.57;;;16.40;99.90;;;;;;5074364;28;20321;-59
2022/08/27 01:45:13;;;;;;;17.80;10.40;;;16.40;99.90;;;;;;5074244;28;20633;-59
2022/08/27 01:47:40;;;;;;;16.53;9.90;;;16.30;99.90;;;;;;5072649;28;20219;-60
2022/08/27 01:50:10;;;;;;;13.77;10.17;;;16.30;99.90;;;;;;5073729;28;20262;-59
2022/08/27 01:52:37;;;;;;;17.33;10.80;;;16.30;99.90;;;;;;5073978;28;20225;-59
2022/08/27 01:55:05;;;;;;;15.33;10.53;;;16.30;99.90;;;;;;5074138;28;20220;-59
2022/08/27 01:57:34;;;;;;;14.47;10.27;;;16.30;99.90;;;;;;5073721;28;20204;-59
2022/08/27 02:00:02;;;;;;;18.73;10.70;;;16.30;99.90;;;;;;5073817;28;20204;-59
2022/08/27 02:02:28;;;;;;;16.37;10.97;;;16.30;99.90;;;;;;5073718;28;20262;-58
2022/08/27 02:04:55;;;;;;;16.30;11.50;;;16.30;99.90;;;;;;5073972;28;20209;-58
2022/08/27 02:07:22;;;;;;;17.30;11.30;;;16.30;99.90;;;;;;5073766;28;20258;-55
2022/08/27 02:09:48;;;;;;;13.80;10.57;;;16.40;99.90;;;;;;5073869;28;20201;-58
2022/08/27 02:12:15;;;;;;;17.17;11.23;;;16.30;99.90;;;;;;5073562;28;20697;-58
2022/08/27 02:14:42;;;;;;;20.00;11.77;;;16.40;99.90;;;;;;5073402;28;20284;-59
2022/08/27 02:17:11;;;;;;;17.10;10.80;;;16.40;99.90;;;;;;5073330;28;20620;-59
2022/08/27 02:19:38;;;;;;;16.37;11.57;;;16.40;99.90;;;;;;5073462;28;20565;-59
2022/08/27 02:22:05;;;;;;;22.43;12.47;;;16.30;99.90;;;;;;5073516;28;20327;-58
2022/08/27 02:24:32;;;;;;;21.47;12.93;;;16.20;99.90;;;;;;5073313;28;20229;-59
2022/08/27 02:26:59;;;;;;;14.80;11.80;;;16.20;99.90;;;;;;5073113;28;20205;-59
2022/08/27 02:29:26;;;;;;;19.23;11.63;;;16.20;99.90;;;;;;5072931;28;20201;-59
2022/08/27 02:31:53;;;;;;;13.40;9.80;;;16.20;99.90;;;;;;5073093;28;20275;-58
2022/08/27 02:34:22;;;;;;;16.20;10.00;;;16.20;99.90;;;;;;5073105;28;20648;-59
2022/08/27 02:36:48;;;;;;;12.10;9.80;;;16.20;99.90;;;;;;5072948;28;20209;-59
2022/08/27 02:39:15;;;;;;;13.97;10.63;;;16.10;99.90;;;;;;5073101;28;20204;-60
2022/08/27 02:41:42;;;;;;;16.33;10.87;;;16.10;99.90;;;;;;5072951;28;20571;-59
2022/08/27 02:44:10;;;;;;;21.20;11.03;;;16.10;99.90;;;;;;5072721;28;20221;-58
2022/08/27 02:46:37;;;;;;;14.53;10.23;;;16.10;99.90;;;;;;5072871;28;20575;-59
2022/08/27 02:49:04;;;;;;;20.17;9.87;;;16.10;99.90;;;;;;5073737;28;20215;-59
2022/08/27 02:51:32;;;;;;;13.77;10.50;;;16.00;99.90;;;;;;5072862;28;20221;-58
2022/08/27 02:53:58;;;;;;;13.90;9.67;;;16.10;99.90;;;;;;5072766;28;20715;-59
2022/08/27 02:56:25;;;;;;;16.87;10.50;;;16.10;99.90;;;;;;5072855;28;20266;-58
2022/08/27 02:58:51;;;;;;;15.93;9.17;;;16.10;99.90;;;;;;5072234;28;20209;-59
2022/08/27 03:01:18;;;;;;;16.57;10.20;;;16.00;99.90;;;;;;5072848;28;20205;-59
2022/08/27 03:03:45;;;;;;;16.70;10.10;;;16.10;99.90;;;;;;5072599;28;20275;-59
2022/08/27 03:06:13;;;;;;;16.80;9.50;;;16.00;99.90;;;;;;5072182;28;20311;-59
2022/08/27 03:08:41;;;;;;;16.07;10.00;;;16.00;99.90;;;;;;5072945;28;20250;-59
2022/08/27 03:11:08;;;;;;;16.03;9.97;;;16.10;99.90;;;;;;5072336;28;20212;-59
2022/08/27 03:13:36;;;;;;;16.43;9.20;;;16.20;99.90;;;;;;5072304;28;20298;-59
2022/08/27 03:16:03;;;;;;;13.80;8.77;;;16.20;99.90;;;;;;5072176;28;20227;-59
2022/08/27 03:18:29;;;;;;;15.57;8.23;;;16.20;99.90;;;;;;5072494;28;20552;-59
2022/08/27 03:20:56;;;;;;;16.87;8.37;;;16.20;99.90;;;;;;5072123;28;20212;-59
2022/08/27 03:23:25;;;;;;;11.10;8.13;;;16.20;99.90;;;;;;5072310;28;20256;-59
2022/08/27 03:25:55;;;;;;;18.23;8.23;;;16.10;99.90;;;;;;5072074;28;20226;-59
2022/08/27 03:28:25;;;;;;;12.37;7.90;;;16.10;99.90;;;;;;5072344;28;20204;-59
2022/08/27 03:30:54;;;;;;;11.90;7.47;;;16.10;99.90;;;;;;5072311;28;20548;-59
2022/08/27 03:33:21;;;;;;;15.33;7.17;;;16.00;99.90;;;;;;5072099;28;20285;-59
2022/08/27 03:35:48;;;;;;;20.40;7.43;;;16.00;99.90;;;;;;5072210;28;20204;-57
2022/08/27 03:38:15;;;;;;;12.43;6.87;;;16.10;99.90;;;;;;5071592;28;20256;-58
2022/08/27 03:40:42;;;;;;;13.50;6.33;;;16.10;99.90;;;;;;5072275;28;20209;-57
2022/08/27 03:43:12;;;;;;;10.53;6.20;;;16.10;99.90;;;;;;5072358;28;20381;-58
2022/08/27 03:45:39;;;;;;;9.90;6.40;;;16.10;99.90;;;;;;5072109;28;20228;-57
2022/08/27 03:48:06;;;;;;;13.80;6.53;;;16.20;99.90;;;;;;5071700;28;20208;-57
2022/08/27 03:50:33;;;;;;;8.07;5.30;;;16.10;99.90;;;;;;5071873;28;20205;-54
2022/08/27 03:53:00;;;;;;;12.73;5.90;;;16.10;99.90;;;;;;5071541;28;20232;-58
2022/08/27 03:55:27;;;;;;;15.93;5.97;;;16.00;99.90;;;;;;5071865;28;20212;-58
2022/08/27 03:57:53;;;;;;;9.80;5.37;;;16.00;99.90;;;;;;5071553;28;20231;-57
2022/08/27 04:00:23;;;;;;;51.97;29.37;;;16.10;99.90;;;;;;5072066;28;20201;-58
2022/08/27 04:02:50;;;;;;;13.10;6.33;;;16.10;99.90;;;;;;5071620;28;20225;-57
2022/08/27 04:05:17;;;;;;;9.47;5.33;;;16.00;99.90;;;;;;5071744;28;20254;-57
2022/08/27 04:07:44;;;;;;;10.27;6.20;;;16.10;99.90;;;;;;5071646;28;20205;-55
2022/08/27 04:10:13;;;;;;;8.37;5.17;;;16.00;99.90;;;;;;5072748;28;20246;-55
2022/08/27 04:12:40;;;;;;;7.17;5.13;;;16.00;99.90;;;;;;5075680;28;20229;-58
2022/08/27 04:15:07;;;;;;;14.47;6.37;;;16.10;99.90;;;;;;5075900;28;20262;-57
2022/08/27 04:17:35;;;;;;;10.53;5.00;;;16.10;99.90;;;;;;5075551;28;20205;-58
2022/08/27 04:20:03;;;;;;;7.60;5.60;;;16.10;99.90;;;;;;5075438;28;20285;-58
2022/08/27 04:22:29;;;;;;;7.87;5.00;;;16.00;99.90;;;;;;5075788;28;20200;-58
2022/08/27 04:24:56;;;;;;;14.07;5.50;;;16.00;99.90;;;;;;5075744;28;20205;-58
2022/08/27 04:27:25;;;;;;;9.97;5.37;;;16.00;99.90;;;;;;5075484;28;20254;-57
2022/08/27 04:29:54;;;;;;;11.50;5.60;;;15.90;99.90;;;;;;5075338;28;20705;-58
2022/08/27 04:32:22;;;;;;;16.23;5.90;;;15.70;99.90;;;;;;5075419;28;20738;-57
2022/08/27 04:34:53;;;;;;;10.60;6.47;;;15.70;99.90;;;;;;5075246;28;20763;-56
2022/08/27 04:37:19;;;;;;;11.90;6.73;;;15.70;99.90;;;;;;5075419;28;20204;-57
2022/08/27 04:39:46;;;;;;;12.33;6.93;;;15.50;99.90;;;;;;5075312;28;20632;-57
2022/08/27 04:42:13;;;;;;;11.73;7.10;;;15.60;99.90;;;;;;5075400;28;20258;-58
2022/08/27 04:44:39;;;;;;;7.87;6.77;;;15.70;99.90;;;;;;5075089;28;20229;-57
2022/08/27 04:47:06;;;;;;;13.93;6.57;;;15.70;99.90;;;;;;5074983;28;20209;-58
2022/08/27 04:49:33;;;;;;;11.10;6.40;;;15.70;99.90;;;;;;5075555;28;20235;-58
2022/08/27 04:52:02;;;;;;;13.70;6.37;;;15.60;99.90;;;;;;5075106;28;20201;-55
2022/08/27 04:54:28;;;;;;;12.27;6.50;;;15.50;99.90;;;;;;5074838;28;20769;-58
2022/08/27 04:56:55;;;;;;;16.57;7.07;;;15.50;99.90;;;;;;5074860;28;20281;-59
2022/08/27 04:59:22;;;;;;;11.73;8.03;;;15.50;99.90;;;;;;5074888;28;20205;-58
2022/08/27 05:01:49;;;;;;;11.70;7.77;;;15.50;99.90;;;;;;5074943;28;20287;-58
2022/08/27 05:04:17;;;;;;;16.67;8.80;;;15.50;99.90;;;;;;5075212;28;20224;-55
2022/08/27 05:06:44;;;;;;;13.30;8.90;;;15.50;99.90;;;;;;5074849;28;20211;-55
2022/08/27 05:09:13;;;;;;;16.73;8.20;;;15.50;99.90;;;;;;5074805;28;20236;-56
2022/08/27 05:11:41;;;;;;;18.97;8.10;;;15.50;99.90;;;;;;5074818;28;20205;-57
2022/08/27 05:14:10;;;;;;;15.10;8.20;;;15.60;99.90;;;;;;5074495;28;20231;-58
2022/08/27 05:16:37;;;;;;;14.50;7.23;;;15.70;99.90;;;;;;5074423;28;20209;-56
2022/08/27 05:19:05;;;;;;;13.27;7.33;;;15.70;99.90;;;;;;5074670;28;20657;-57
2022/08/27 05:21:33;;;;;;;10.87;6.40;;;15.80;99.90;;;;;;5074239;28;20808;-58
2022/08/27 05:24:02;;;;;;;10.20;6.13;;;15.70;99.90;;;;;;5074535;28;20636;-58
2022/08/27 05:26:33;;;;;;;14.37;6.80;;;15.70;99.90;;;;;;5074252;28;20630;-57
2022/08/27 05:29:00;;;;;;;12.53;6.33;;;15.70;99.90;;;;;;5074696;28;20212;-58
2022/08/27 05:31:28;;;;;;;11.30;6.20;;;15.70;99.90;;;;;;5074591;28;20346;-56
2022/08/27 05:33:55;;;;;;;10.80;6.00;;;15.70;99.90;;;;;;5074359;28;20237;-58
2022/08/27 05:36:25;;;;;;;12.07;6.53;;;15.70;99.90;;;;;;5073954;28;20679;-55
2022/08/27 05:38:53;;;;;;;11.17;5.97;;;15.70;99.90;;;;;;5073980;28;20236;-55
2022/08/27 05:41:24;;;;;;;10.80;7.20;;;15.80;99.90;;;;;;5073654;28;20262;-58
2022/08/27 05:43:53;;;;;;;13.63;7.07;;;15.70;99.90;;;;;;5073784;28;20303;-53
2022/08/27 05:46:22;;;;;;;12.07;7.60;;;15.70;99.90;;;;;;5074063;28;20209;-56
2022/08/27 05:48:49;;;;;;;20.40;7.77;;;15.80;99.90;;;;;;5074091;28;20209;-58
2022/08/27 05:51:19;;;;;;;10.80;8.03;;;15.80;99.90;;;;;;5074009;28;20204;-56
2022/08/27 05:53:46;;;;;;;12.70;7.70;;;15.80;99.90;;;;;;5073763;28;20225;-58
2022/08/27 05:56:14;;;;;;;16.20;7.60;;;15.90;99.90;;;;;;5073990;28;20213;-58
2022/08/27 06:01:27;;;;;;;12.47;6.60;;;15.90;99.90;;;;;;5073909;28;20619;-58
2022/08/27 06:03:55;;;;;;;11.00;6.43;;;16.00;99.90;;;;;;5073758;28;20236;-58
2022/08/27 06:06:22;;;;;;;10.00;6.10;;;15.90;99.90;;;;;;5073381;28;20201;-58
2022/08/27 06:08:49;;;;;;;7.00;5.57;;;16.00;99.90;;;;;;5073630;28;20578;-58
2022/08/27 06:11:18;;;;;;;13.27;6.07;;;16.00;99.90;;;;;;5073772;28;20296;-56
2022/08/27 06:13:45;;;;;;;9.67;5.40;;;16.00;99.90;;;;;;5073557;28;20242;-58
2022/08/27 06:16:15;;;;;;;13.73;6.50;;;15.90;99.90;;;;;;5073638;28;20209;-57
2022/08/27 06:18:44;;;;;;;7.77;5.80;;;15.90;99.90;;;;;;5073511;28;20208;-59
2022/08/27 06:21:12;;;;;;;11.33;6.27;;;16.00;99.90;;;;;;5073847;28;20258;-58
2022/08/27 06:23:39;;;;;;;11.40;5.67;;;16.10;99.90;;;;;;5073453;28;20633;-59
2022/08/27 06:26:08;;;;;;;7.53;5.50;;;16.00;99.90;;;;;;5073271;28;20201;-57
2022/08/27 06:28:35;;;;;;;8.43;5.53;;;16.10;99.90;;;;;;5073238;28;20292;-58
2022/08/27 06:31:05;;;;;;;8.83;5.43;;;16.20;99.90;;;;;;5073211;28;20209;-57
2022/08/27 06:33:32;;;;;;;9.57;5.93;;;16.20;99.90;;;;;;5072286;28;20229;-58
2022/08/27 06:36:00;;;;;;;10.07;5.50;;;16.20;99.90;;;;;;5073118;28;20204;-58
2022/08/27 06:38:28;;;;;;;12.67;5.17;;;16.20;99.90;;;;;;5073222;28;20205;-56
2022/08/27 06:40:56;;;;;;;11.67;5.10;;;16.20;99.90;;;;;;5073063;28;20675;-56
2022/08/27 06:43:23;;;;;;;6.70;4.67;;;16.20;99.90;;;;;;5072808;28;20703;-56
2022/08/27 06:45:49;;;;;;;9.50;5.13;;;16.20;99.90;;;;;;5072740;28;20207;-56
2022/08/27 06:48:17;;;;;;;8.70;5.07;;;16.20;99.90;;;;;;5073508;28;20207;-58
2022/08/27 06:50:44;;;;;;;8.90;5.07;;;16.30;99.90;;;;;;5073515;28;20247;-58
2022/08/27 06:53:12;;;;;;;12.90;4.93;;;16.20;99.90;;;;;;5073063;28;20225;-59
2022/08/27 06:55:43;;;;;;;9.13;4.87;;;16.20;99.90;;;;;;5073281;28;20205;-58
2022/08/27 06:58:10;;;;;;;11.00;5.13;;;16.20;99.90;;;;;;5072891;28;20254;-59
2022/08/27 07:00:37;;;;;;;8.93;4.60;;;16.20;99.90;;;;;;5073359;28;20204;-58
2022/08/27 07:03:05;;;;;;;9.00;4.93;;;16.20;99.90;;;;;;5073239;28;20221;-57
2022/08/27 07:05:31;;;;;;;10.27;5.40;;;16.20;99.90;;;;;;5072675;28;20250;-59
2022/08/27 07:07:58;;;;;;;10.27;4.77;;;16.30;99.90;;;;;;5072316;28;20209;-56
2022/08/27 07:10:26;;;;;;;7.00;4.87;;;16.20;99.90;;;;;;5072426;28;20209;-59
2022/08/27 07:12:54;;;;;;;10.63;5.50;;;16.30;99.90;;;;;;5072035;28;20229;-56
2022/08/27 07:15:20;;;;;;;8.47;5.23;;;16.40;99.90;;;;;;5072636;28;20263;-58
2022/08/27 07:17:47;;;;;;;12.13;4.93;;;16.40;99.90;;;;;;5071837;28;20261;-58
2022/08/27 07:20:16;;;;;;;6.73;4.83;;;16.50;99.90;;;;;;5072085;28;20217;-59
2022/08/27 07:22:43;;;;;;;9.17;4.40;;;16.60;99.90;;;;;;5072107;28;20652;-56
2022/08/27 07:25:13;;;;;;;8.43;3.57;;;16.80;99.90;;;;;;5072115;28;20205;-56
2022/08/27 07:27:41;;;;;;;8.17;4.67;;;17.00;99.90;;;;;;5072441;28;20552;-58
2022/08/27 07:30:11;;;;;;;9.00;4.27;;;17.10;99.90;;;;;;5072246;28;20201;-58
2022/08/27 07:32:38;;;;;;;7.37;3.37;;;17.30;99.90;;;;;;5072003;28;20331;-61
2022/08/27 07:35:08;;;;;;;9.83;4.10;;;17.50;99.90;;;;;;5071955;28;20212;-60
2022/08/27 07:37:34;;;;;;;7.47;3.27;;;17.70;99.90;;;;;;5071622;28;20204;-58
2022/08/27 07:40:02;;;;;;;7.20;4.13;;;17.50;99.90;;;;;;5072020;28;20278;-58
2022/08/27 07:45:15;;;;;;;7.43;3.93;;;17.80;99.90;;;;;;5071785;28;20199;-58
2022/08/27 07:47:42;;;;;;;5.47;3.67;;;17.90;99.90;;;;;;5071895;28;20262;-58
2022/08/27 07:50:10;;;;;;;6.57;2.83;;;18.10;99.90;;;;;;5072005;28;20205;-58
2022/08/27 07:52:36;;;;;;;7.47;3.20;;;18.20;64.70;;;;;;5071682;28;20204;-58
2022/08/27 07:55:03;;;;;;;8.07;3.13;;;18.20;1.00;;;;;;5071942;28;20229;-61
2022/08/27 07:57:31;;;;;;;3.83;2.87;;;18.10;1.00;;;;;;5071961;28;20258;-58
2022/08/27 07:59:58;;;;;;;7.53;3.47;;;18.10;1.00;;;;;;5072964;28;20208;-60
2022/08/27 08:02:26;;;;;;;7.47;3.43;;;18.10;1.00;;;;;;5072700;28;20201;-60
2022/08/27 08:04:53;;;;;;;5.77;2.80;;;18.20;1.00;;;;;;5072237;28;20209;-60
2022/08/27 08:07:20;;;;;;;6.27;2.93;;;18.30;1.00;;;;;;5071559;28;20239;-60
2022/08/27 08:09:47;;;;;;;7.43;3.07;;;18.40;1.00;;;;;;5072134;28;20209;-60
2022/08/27 08:12:14;;;;;;;4.87;2.80;;;18.40;1.00;;;;;;5071786;28;20250;-61
2022/08/27 08:14:41;;;;;;;8.63;3.13;;;18.50;1.00;;;;;;5071606;28;20229;-60
2022/08/27 08:17:08;;;;;;;7.47;3.10;;;18.50;1.00;;;;;;5071203;28;20216;-58
2022/08/27 08:19:36;;;;;;;8.20;3.10;;;18.20;1.00;;;;;;5071534;28;20217;-58
2022/08/27 08:22:02;;;;;;;9.00;3.30;;;18.20;1.00;;;;;;5071690;28;20256;-60
2022/08/27 08:24:29;;;;;;;5.83;3.30;;;18.30;1.00;;;;;;5071478;28;20712;-60
2022/08/27 08:26:55;;;;;;;5.23;3.00;;;18.30;1.00;;;;;;5071167;28;20262;-62
2022/08/27 08:29:22;;;;;;;7.40;3.20;;;18.40;1.00;;;;;;5071355;28;20259;-60
2022/08/27 08:31:49;;;;;;;6.40;3.27;;;18.40;1.00;;;;;;5071457;28;20201;-61
2022/08/27 08:34:15;;;;;;;9.30;4.00;;;18.40;1.00;;;;;;5071252;28;20756;-58
2022/08/27 08:36:43;;;;;;;7.20;3.37;;;18.00;1.00;;;;;;5071436;28;20254;-61
2022/08/27 08:39:10;;;;;;;8.33;2.93;;;18.10;1.00;;;;;;5071342;28;20205;-61
2022/08/27 08:41:40;;;;;;;6.63;3.07;;;18.30;1.00;;;;;;5071525;28;20254;-61
2022/08/27 08:44:14;;;;;;;10.30;3.77;;;18.40;1.00;;;;;;5071008;28;20217;-61
2022/08/27 08:46:48;;;;;;;7.20;3.20;;;18.50;1.00;;;;;;5071172;28;20205;-63
2022/08/27 08:49:27;;;;;;;7.73;3.30;;;18.50;1.00;;;;;;5071554;28;20624;-61
2022/08/27 08:52:03;;;;;;;6.13;3.07;;;18.60;1.00;;;;;;5060791;28;20212;-58
2022/08/27 08:54:33;;;;;;;9.97;2.87;;;18.40;1.00;;;;;;5070613;28;20220;-59
2022/08/27 08:57:06;;;;;;;4.93;2.30;;;18.20;1.00;;;;;;5073052;28;20205;-59
2022/08/27 08:59:36;;;;;;;4.47;2.20;;;18.20;1.00;;;;;;5074586;28;20642;-56
2022/08/27 09:02:05;;;;;;;7.13;2.57;;;18.00;1.00;;;;;;5074210;28;20208;-62
2022/08/27 09:04:31;;;;;;;6.17;2.30;;;18.10;1.00;;;;;;5073803;28;20282;-54
2022/08/27 09:07:07;;;;;;;4.97;1.93;;;18.10;1.00;;;;;;5074821;28;20209;-53
2022/08/27 09:09:42;;;;;;;5.63;1.90;;;18.00;1.00;;;;;;5074764;28;20208;-50
2022/08/27 09:12:14;;;;;;;4.93;2.30;;;18.10;1.00;;;;;;5074685;28;20736;-53
2022/08/27 09:14:46;;;;;;;5.67;1.80;;;18.10;1.00;;;;;;5074706;28;20235;-54
2022/08/27 09:17:13;;;;;;;8.87;2.30;;;18.20;1.00;;;;;;5074331;28;20253;-55
2022/08/27 09:19:41;;;;;;;3.70;1.90;;;18.20;1.00;;;;;;5074186;28;20219;-56
2022/08/27 09:22:18;;;;;;;5.03;2.13;;;18.20;1.00;;;;;;5074511;28;20231;-52
2022/08/27 09:24:55;;;;;;;5.70;2.17;;;18.30;1.00;;;;;;5074585;28;20231;-55
2022/08/27 09:27:22;;;;;;;6.43;1.60;;;18.20;1.00;;;;;;5074309;28;20205;-49
2022/08/27 09:29:52;;;;;;;5.40;2.03;;;18.20;99.90;;;;;;5074502;28;20644;-55
2022/08/27 09:32:23;;;;;;;5.33;1.90;;;18.30;1.00;;;;;;5074467;28;20625;-52
2022/08/27 09:34:50;;;;;;;5.23;2.10;;;18.30;99.90;;;;;;5074345;28;20229;-55
2022/08/27 09:37:22;;;;;;;6.53;1.60;;;18.40;99.90;;;;;;5074332;28;20805;-53
2022/08/27 09:39:51;;;;;;;6.23;2.20;;;18.40;99.90;;;;;;5074520;28;20205;-52
2022/08/27 09:42:30;;;;;;;5.00;1.73;;;18.40;99.90;;;;;;5074353;28;20684;-53
2022/08/27 09:44:57;;;;;;;5.57;1.70;;;18.50;99.90;;;;;;5074633;28;20204;-48
2022/08/27 09:47:24;;;;;;;2.57;1.70;;;18.50;99.90;;;;;;5074819;28;20262;-51
2022/08/27 09:50:02;;;;;;;5.63;2.20;;;18.60;99.90;;;;;;5075065;28;20235;-53
2022/08/27 09:52:34;;;;;;;5.53;1.93;;;18.60;99.90;;;;;;5074226;28;20209;-54
2022/08/27 09:55:01;;;;;;;4.80;1.73;;;18.70;99.90;;;;;;5074189;28;20221;-54
2022/08/27 09:57:34;;;;;;;4.53;2.07;;;18.80;99.90;;;;;;5073569;28;20201;-55
2022/08/27 10:00:01;;;;;;;4.13;1.80;;;18.90;1.00;;;;;;5074283;28;20208;-55
2022/08/27 10:02:29;;;;;;;5.97;1.93;;;18.90;99.90;;;;;;5073702;28;20201;-54
2022/08/27 10:04:58;;;;;;;5.07;1.70;;;18.90;68.70;;;;;;5073722;28;20686;-55
2022/08/27 10:07:36;;;;;;;5.20;1.70;;;19.00;36.30;;;;;;5072626;28;20213;-55
2022/08/27 10:10:10;;;;;;;4.87;1.80;;;19.10;1.00;;;;;;5073833;28;20205;-54
2022/08/27 10:12:51;;;;;;;6.00;1.73;;;19.20;99.90;;;;;;5073612;28;20201;-50
2022/08/27 10:15:18;;;;;;;4.40;1.73;;;19.40;99.90;;;;;;5073643;28;20231;-53
2022/08/27 10:17:53;;;;;;;6.30;2.10;;;19.50;99.90;;;;;;5073259;28;20213;-52
2022/08/27 10:20:25;;;;;;;7.33;1.77;;;19.50;99.90;;;;;;5073398;28;20212;-55
2022/08/27 10:23:04;;;;;;;7.43;1.90;;;19.60;99.90;;;;;;5073575;28;20224;-47
2022/08/27 10:25:39;;;;;;;4.83;2.03;;;19.60;1.00;;;;;;5074078;28;20629;-58
2022/08/27 10:28:17;;;;;;;5.17;2.60;;;19.50;99.90;;;;;;5073228;28;20235;-53
2022/08/27 10:31:04;;;;;;;4.93;2.17;;;19.40;1.00;;;;;;5073096;28;20209;-56
2022/08/27 10:33:39;;;;;;;6.23;1.90;;;19.50;1.00;;;;;;5073218;28;20221;-55
2022/08/27 10:36:15;;;;;;;6.17;1.60;;;19.70;99.90;;;;;;5073059;28;20201;-53
2022/08/27 10:38:48;;;;;;;5.13;2.00;;;19.70;98.70;;;;;;5072773;28;20208;-55
2022/08/27 10:41:20;;;;;;;8.70;2.50;;;19.70;1.00;;;;;;5059033;28;20266;-61
2022/08/27 10:44:18;;;;;;;5.97;2.37;;;19.50;47.60;;;;;;5071686;28;20754;-56
2022/08/27 10:47:10;;;;;;;6.00;2.53;;;19.50;99.90;;;;;;5060324;28;20208;-57
2022/08/27 10:49:45;;;;;;;5.60;2.90;;;19.60;99.90;;;;;;5072518;28;20262;-56
2022/08/27 10:52:18;;;;;;;6.80;3.40;;;19.50;81.70;;;;;;5072106;28;20283;-62
2022/08/27 10:54:53;;;;;;;7.40;2.47;;;19.60;1.00;;;;;;5069351;28;20236;-52
2022/08/27 10:57:28;;;;;;;5.97;2.47;;;19.60;99.90;;;;;;5071989;28;20227;-55
2022/08/27 11:00:02;;;;;;;4.97;2.10;;;19.70;99.90;;;;;;5071831;28;20650;-56
2022/08/27 11:02:34;;;;;;;3.07;2.10;;;19.80;99.90;;;;;;5071759;28;20729;-56
2022/08/27 11:05:06;;;;;;;4.50;1.93;;;19.70;1.00;;;;;;5072075;28;20280;-58
2022/08/27 11:07:38;;;;;;;3.07;2.07;;;19.70;1.00;;;;;;5071845;28;20205;-56
2022/08/27 11:10:09;;;;;;;5.97;1.83;;;19.60;99.90;;;;;;5071983;28;20315;-58
2022/08/27 11:12:38;;;;;;;4.13;1.83;;;19.60;1.00;;;;;;5071548;28;20226;-56
2022/08/27 11:15:10;;;;;;;4.73;2.20;;;19.80;99.90;;;;;;5072198;28;20235;-59
2022/08/27 11:17:43;;;;;;;5.23;1.80;;;19.90;99.90;;;;;;5071561;28;20215;-59
2022/08/27 11:20:13;;;;;;;5.60;1.70;;;19.90;99.30;;;;;;5071769;28;20266;-59
2022/08/27 11:22:47;;;;;;;5.13;1.87;;;19.90;1.00;;;;;;5071357;28;20209;-59
2022/08/27 11:25:30;;;;;;;3.93;1.90;;;20.00;1.00;;;;;;5071974;28;20201;-58
2022/08/27 11:27:59;;;;;;;6.77;1.77;;;20.30;1.00;;;;;;5071290;28;20270;-60
2022/08/27 11:30:35;;;;;;;4.47;1.73;;;20.30;1.00;;;;;;5071815;28;20631;-55
2022/08/27 11:33:07;;;;;;;3.57;1.70;;;20.30;99.90;;;;;;5071420;28;20258;-57
2022/08/27 11:35:45;;;;;;;3.87;1.67;;;20.40;99.90;;;;;;5071590;28;20232;-58
2022/08/27 11:38:32;;;;;;;4.57;1.80;;;20.40;99.90;;;;;;5071273;28;20694;-57
2022/08/27 11:41:14;;;;;;;5.07;2.33;;;20.40;99.90;;;;;;5071529;28;20215;-57
2022/08/27 11:43:43;;;;;;;5.27;2.00;;;20.50;1.00;;;;;;5071178;28;20232;-57
2022/08/27 11:46:11;;;;;;;3.63;1.70;;;20.50;99.90;;;;;;5071623;28;20227;-56
2022/08/27 11:48:41;;;;;;;2.50;1.60;;;20.50;1.00;;;;;;5071383;28;20208;-61
2022/08/27 11:51:13;;;;;;;2.93;1.70;;;20.50;1.00;;;;;;5070611;28;20208;-61
2022/08/27 11:53:42;;;;;;;5.03;1.30;;;20.60;1.00;;;;;;5070833;28;20229;-60
2022/08/27 11:56:15;;;;;;;2.43;1.37;;;20.80;1.00;;;;;;5071048;28;20651;-60
2022/08/27 11:58:43;;;;;;;6.87;1.70;;;20.90;99.90;;;;;;5071308;28;20211;-61
2022/08/27 12:01:16;;;;;;;5.10;1.50;;;21.00;1.00;;;;;;5070424;28;20300;-58
2022/08/27 12:03:43;;;;;;;4.90;1.80;;;20.80;99.90;;;;;;5071169;28;20224;-58
2022/08/27 12:06:23;;;;;;;2.50;1.33;;;20.70;99.90;;;;;;5071114;28;20737;-57
2022/08/27 12:08:50;;;;;;;5.07;1.53;;;20.70;99.90;;;;;;5071394;28;20710;-58
2022/08/27 12:11:30;;;;;;;2.37;1.40;;;20.50;99.90;;;;;;5070918;28;20258;-55
2022/08/27 12:14:05;;;;;;;5.97;1.10;;;20.50;99.90;;;;;;5070878;28;20233;-58
2022/08/27 12:16:40;;;;;;;5.37;1.40;;;20.40;99.90;;;;;;5070984;28;20224;-60
2022/08/27 12:19:20;;;;;;;2.63;1.43;;;20.40;99.90;;;;;;5070928;28;20216;-57
2022/08/27 12:22:01;;;;;;;13.53;2.23;;;20.50;99.90;;;;;;5071089;28;20208;-54
2022/08/27 12:24:42;;;;;;;4.00;1.50;;;20.50;99.90;;;;;;5070994;28;20278;-59
2022/08/27 12:27:30;;;;;;;4.07;1.70;;;20.40;99.90;;;;;;5071006;28;20215;-56
2022/08/27 12:29:59;;;;;;;4.17;1.50;;;20.40;99.90;;;;;;5071148;28;20635;-57
2022/08/27 12:32:29;;;;;;;5.07;1.70;;;20.50;99.90;;;;;;5074560;28;20209;-59
2022/08/27 12:35:03;;;;;;;2.63;1.33;;;20.50;99.90;;;;;;5074837;28;20224;-57
2022/08/27 12:37:33;;;;;;;3.67;1.33;;;20.60;99.90;;;;;;5075438;28;20261;-57
2022/08/27 12:40:07;;;;;;;5.27;1.47;;;20.60;99.90;;;;;;5074639;28;20216;-58
2022/08/27 12:42:35;;;;;;;2.90;1.50;;;20.60;99.90;;;;;;5074608;28;20203;-57
2022/08/27 12:45:02;;;;;;;3.80;1.70;;;20.70;99.90;;;;;;5074858;28;20197;-55
2022/08/27 12:47:37;;;;;;;4.50;1.90;;;20.90;99.90;;;;;;5074583;28;20201;-57
2022/08/27 12:50:04;;;;;;;3.90;1.60;;;21.10;99.90;;;;;;5074817;28;20558;-54
2022/08/27 12:53:08;;;;;;;6.93;2.63;;;21.10;99.90;;;;;;5074007;28;20205;-61
2022/08/27 12:55:45;;;;;;;5.77;1.67;;;21.30;99.90;;;;;;5067580;28;20224;-59
2022/08/27 12:58:23;;;;;;;3.07;1.87;;;21.30;99.90;;;;;;5074212;28;20208;-58
2022/08/27 13:01:05;;;;;;;6.70;2.40;;;21.40;99.90;;;;;;5074276;28;20200;-58